createdAt,value
2018-02-23T00:01:44.516Z,-0.80
2018-02-23T00:04:10.760Z,-0.80
2018-02-23T00:06:37.061Z,-0.80
2018-02-23T00:09:03.309Z,-0.80
2018-02-23T00:11:29.551Z,-0.80
2018-02-23T00:13:55.818Z,-0.90
2018-02-23T00:16:22.060Z,-0.90
2018-02-23T00:18:48.470Z,-0.90
2018-02-23T00:21:14.682Z,-0.90
2018-02-23T00:23:40.924Z,-0.80
2018-02-23T00:26:07.902Z,-0.90
2018-02-23T00:28:34.157Z,-0.90
2018-02-23T00:31:00.414Z,-0.90
2018-02-23T00:33:27.434Z,-0.90
2018-02-23T00:35:53.698Z,-0.90
2018-02-23T00:38:19.955Z,-0.90
2018-02-23T00:40:46.178Z,-0.80
2018-02-23T00:43:12.755Z,-0.80
2018-02-23T00:45:39.074Z,-0.80
2018-02-23T00:48:05.297Z,-0.80
2018-02-23T00:50:31.530Z,-0.80
2018-02-23T00:52:57.879Z,-0.80
2018-02-23T00:55:24.114Z,-0.80
2018-02-23T00:57:50.379Z,-0.80
2018-02-23T01:00:17.333Z,-0.70
2018-02-23T01:02:44.348Z,-0.70
2018-02-23T01:05:10.612Z,-0.80
2018-02-23T01:07:36.879Z,-0.70
2018-02-23T01:10:03.118Z,-0.70
2018-02-23T01:12:29.483Z,-0.70
2018-02-23T01:14:56.458Z,-0.70
2018-02-23T01:17:22.694Z,-0.70
2018-02-23T01:19:48.959Z,-0.70
2018-02-23T01:22:15.152Z,-0.70
2018-02-23T01:24:41.426Z,-0.60
2018-02-23T01:27:07.714Z,-0.60
2018-02-23T01:29:34.018Z,-0.60
2018-02-23T01:32:00.964Z,-0.50
2018-02-23T01:34:27.932Z,-0.60
2018-02-23T01:36:54.285Z,-0.60
2018-02-23T01:39:20.513Z,-0.50
2018-02-23T01:41:47.494Z,-0.50
2018-02-23T01:44:13.742Z,-0.50
2018-02-23T01:46:40.715Z,-0.50
2018-02-23T01:49:06.958Z,-0.50
2018-02-23T01:51:33.195Z,-0.50
2018-02-23T01:53:59.467Z,-0.50
2018-02-23T01:56:25.673Z,-0.40
2018-02-23T01:58:51.948Z,-0.50
2018-02-23T02:01:18.192Z,-0.40
2018-02-23T02:03:44.501Z,-0.40
2018-02-23T02:06:10.763Z,-0.40
2018-02-23T02:08:36.993Z,-0.40
2018-02-23T02:11:03.247Z,-0.40
2018-02-23T02:13:29.536Z,-0.40
2018-02-23T02:15:55.759Z,-0.40
2018-02-23T02:18:21.983Z,-0.40
2018-02-23T02:20:48.992Z,-0.40
2018-02-23T02:23:15.258Z,-0.40
2018-02-23T02:25:41.572Z,-0.40
2018-02-23T02:28:08.576Z,-0.40
2018-02-23T02:30:34.823Z,-0.40
2018-02-23T02:33:01.097Z,-0.30
2018-02-23T02:35:27.315Z,-0.30
2018-02-23T02:37:54.311Z,-0.30
2018-02-23T02:40:20.525Z,-0.30
2018-02-23T02:42:46.835Z,-0.30
2018-02-23T02:45:13.100Z,-0.40
2018-02-23T02:47:39.414Z,-0.30
2018-02-23T02:50:05.644Z,-0.30
2018-02-23T02:52:31.940Z,-0.30
2018-02-23T02:54:58.927Z,-0.30
2018-02-23T02:57:25.153Z,-0.30
2018-02-23T02:59:51.408Z,-0.30
2018-02-23T03:02:18.435Z,-0.30
2018-02-23T03:04:44.818Z,-0.30
2018-02-23T03:07:11.801Z,-0.30
2018-02-23T03:09:38.039Z,-0.30
2018-02-23T03:12:04.343Z,-0.30
2018-02-23T03:14:30.589Z,-0.30
2018-02-23T03:16:56.918Z,-0.30
2018-02-23T03:19:23.182Z,-0.30
2018-02-23T03:21:49.510Z,-0.30
2018-02-23T03:24:15.733Z,-0.30
2018-02-23T03:26:42.106Z,-0.30
2018-02-23T03:29:09.062Z,-0.30
2018-02-23T03:31:36.786Z,-0.20
2018-02-23T03:34:03.145Z,-0.20
2018-02-23T03:36:29.373Z,-0.20
2018-02-23T03:38:55.739Z,-0.20
2018-02-23T03:41:21.984Z,-0.20
2018-02-23T03:43:48.232Z,-0.20
2018-02-23T03:46:14.487Z,-0.20
2018-02-23T03:48:40.766Z,-0.20
2018-02-23T03:51:07.003Z,-0.20
2018-02-23T03:53:33.267Z,-0.20
2018-02-23T03:55:59.566Z,-0.20
2018-02-23T03:58:25.823Z,-0.20
2018-02-23T04:00:52.050Z,-0.20
2018-02-23T04:03:18.292Z,-0.20
2018-02-23T04:05:44.528Z,-0.20
2018-02-23T04:08:10.751Z,-0.20
2018-02-23T04:10:37.022Z,-0.20
2018-02-23T04:13:03.237Z,-0.20
2018-02-23T04:15:30.351Z,-0.20
2018-02-23T04:17:56.574Z,-0.20
2018-02-23T04:20:22.806Z,-0.20
2018-02-23T04:22:49.098Z,-0.20
2018-02-23T04:25:15.349Z,-0.20
2018-02-23T04:27:41.587Z,-0.20
2018-02-23T04:30:07.837Z,-0.20
2018-02-23T04:32:34.043Z,-0.20
2018-02-23T04:35:00.280Z,-0.20
2018-02-23T04:37:26.542Z,-0.20
2018-02-23T04:39:53.562Z,-0.20
2018-02-23T04:42:19.855Z,-0.20
2018-02-23T04:44:46.196Z,-0.20
2018-02-23T04:47:12.581Z,-0.10
2018-02-23T04:49:39.573Z,-0.20
2018-02-23T04:52:05.804Z,-0.20
2018-02-23T04:54:32.057Z,-0.20
2018-02-23T04:56:58.282Z,-0.20
2018-02-23T04:59:24.532Z,-0.20
2018-02-23T05:01:50.763Z,-0.20
2018-02-23T05:04:17.000Z,-0.20
2018-02-23T05:06:44.008Z,-0.20
2018-02-23T05:09:10.511Z,-0.20
2018-02-23T05:11:36.780Z,-0.20
2018-02-23T05:14:03.026Z,-0.10
2018-02-23T05:16:29.350Z,-0.20
2018-02-23T05:18:55.860Z,-0.20
2018-02-23T05:21:22.100Z,-0.20
2018-02-23T05:23:48.321Z,-0.20
2018-02-23T05:26:14.575Z,-0.20
2018-02-23T05:28:40.810Z,-0.20
2018-02-23T05:31:07.061Z,-0.20
2018-02-23T05:33:34.074Z,-0.20
2018-02-23T05:36:00.333Z,-0.20
2018-02-23T05:38:27.352Z,-0.20
2018-02-23T05:40:53.656Z,-0.20
2018-02-23T05:43:19.930Z,-0.20
2018-02-23T05:45:46.156Z,-0.20
2018-02-23T05:48:12.494Z,-0.20
2018-02-23T05:50:39.486Z,-0.20
2018-02-23T05:53:05.728Z,-0.20
2018-02-23T05:55:32.114Z,-0.20
2018-02-23T05:57:59.115Z,-0.20
2018-02-23T06:00:25.340Z,-0.20
2018-02-23T06:02:51.647Z,-0.20
2018-02-23T06:05:17.887Z,-0.20
2018-02-23T06:07:44.196Z,-0.20
2018-02-23T06:10:10.544Z,-0.20
2018-02-23T06:12:36.849Z,-0.20
2018-02-23T06:15:03.823Z,-0.20
2018-02-23T06:17:36.233Z,-0.20
2018-02-23T06:20:08.932Z,-0.20
2018-02-23T06:22:36.122Z,-0.20
2018-02-23T06:25:02.403Z,-0.20
2018-02-23T06:27:28.734Z,-0.20
2018-02-23T06:29:54.974Z,-0.20
2018-02-23T06:32:21.228Z,-0.20
2018-02-23T06:34:47.541Z,-0.20
2018-02-23T06:37:13.919Z,-0.20
2018-02-23T06:39:40.107Z,-0.20
2018-02-23T06:42:07.085Z,-0.30
2018-02-23T06:44:33.416Z,-0.30
2018-02-23T06:47:14.664Z,-0.30
2018-02-23T06:49:40.920Z,-0.30
2018-02-23T06:52:07.230Z,-0.30
2018-02-23T06:54:34.272Z,-0.30
2018-02-23T06:57:01.279Z,-0.30
2018-02-23T06:59:27.527Z,-0.30
2018-02-23T07:01:53.819Z,-0.30
2018-02-23T07:04:20.163Z,-0.30
2018-02-23T07:06:46.667Z,-0.30
2018-02-23T07:09:13.008Z,-0.30
2018-02-23T07:11:39.279Z,-0.30
2018-02-23T07:14:05.610Z,-0.30
2018-02-23T07:16:31.853Z,-0.30
2018-02-23T07:18:58.125Z,-0.30
2018-02-23T07:21:24.383Z,-0.30
2018-02-23T07:23:50.639Z,-0.30
2018-02-23T07:26:16.941Z,-0.30
2018-02-23T07:28:43.224Z,-0.20
2018-02-23T07:31:09.615Z,-0.20
2018-02-23T07:33:35.934Z,-0.20
2018-02-23T07:36:02.148Z,-0.20
2018-02-23T07:38:28.506Z,-0.20
2018-02-23T07:40:54.778Z,-0.20
2018-02-23T07:43:21.004Z,-0.20
2018-02-23T07:45:48.081Z,-0.10
2018-02-23T07:48:14.372Z,-0.20
2018-02-23T07:50:41.392Z,-0.10
2018-02-23T07:53:07.658Z,-0.10
2018-02-23T07:55:34.752Z,-0.10
2018-02-23T07:58:01.011Z,-0.10
2018-02-23T08:00:27.312Z,-0.10
2018-02-23T08:02:53.720Z,0.00
2018-02-23T08:05:20.101Z,0.00
2018-02-23T08:07:46.300Z,0.00
2018-02-23T08:10:12.529Z,0.00
2018-02-23T08:12:38.812Z,0.00
2018-02-23T08:15:05.864Z,0.10
2018-02-23T08:17:32.979Z,0.20
2018-02-23T08:19:59.288Z,0.10
2018-02-23T08:22:25.502Z,0.20
2018-02-23T08:24:51.718Z,0.20
2018-02-23T08:27:17.982Z,0.20
2018-02-23T08:29:44.216Z,0.20
2018-02-23T08:32:10.449Z,0.30
2018-02-23T08:34:36.714Z,0.40
2018-02-23T08:37:03.685Z,0.50
2018-02-23T08:39:29.959Z,0.50
2018-02-23T08:41:56.225Z,0.60
2018-02-23T08:44:23.235Z,0.70
2018-02-23T08:46:49.468Z,0.70
2018-02-23T08:49:16.446Z,0.80
2018-02-23T08:51:43.479Z,0.90
2018-02-23T08:54:09.704Z,0.80
2018-02-23T08:56:36.114Z,0.90
2018-02-23T08:59:02.646Z,1.00
2018-02-23T09:01:28.943Z,1.10
2018-02-23T09:03:55.318Z,1.10
2018-02-23T09:06:21.869Z,1.20
2018-02-23T09:08:48.100Z,1.20
2018-02-23T09:11:14.359Z,1.30
2018-02-23T09:13:41.347Z,1.40
2018-02-23T09:16:07.642Z,1.40
2018-02-23T09:18:33.919Z,1.50
2018-02-23T09:21:00.147Z,1.50
2018-02-23T09:23:26.389Z,1.50
2018-02-23T09:25:52.919Z,1.50
2018-02-23T09:28:19.271Z,1.60
2018-02-23T09:30:45.594Z,1.60
2018-02-23T09:33:11.883Z,1.60
2018-02-23T09:35:38.362Z,1.60
2018-02-23T09:38:04.730Z,1.60
2018-02-23T09:40:30.980Z,1.60
2018-02-23T09:42:57.281Z,1.70
2018-02-23T09:45:24.578Z,1.70
2018-02-23T09:47:51.047Z,1.70
2018-02-23T09:50:17.355Z,1.80
2018-02-23T09:52:43.557Z,1.80
2018-02-23T09:55:10.041Z,1.80
2018-02-23T09:57:36.329Z,1.80
2018-02-23T10:00:02.594Z,1.90
2018-02-23T10:02:28.835Z,1.90
2018-02-23T10:04:56.271Z,1.90
2018-02-23T10:07:22.548Z,1.80
2018-02-23T10:09:48.813Z,1.90
2018-02-23T10:12:15.247Z,1.90
2018-02-23T10:14:41.619Z,1.90
2018-02-23T10:17:07.837Z,1.90
2018-02-23T10:19:34.182Z,1.90
2018-02-23T10:22:01.280Z,2.00
2018-02-23T10:24:27.621Z,2.00
2018-02-23T10:26:54.018Z,2.00
2018-02-23T10:29:20.234Z,2.00
2018-02-23T10:31:47.299Z,2.10
2018-02-23T10:34:13.540Z,2.10
2018-02-23T10:36:39.895Z,2.10
2018-02-23T10:39:06.225Z,2.10
2018-02-23T10:41:32.582Z,2.10
2018-02-23T10:43:59.013Z,2.10
2018-02-23T10:46:25.267Z,2.10
2018-02-23T10:48:52.251Z,2.30
2018-02-23T10:51:18.539Z,2.20
2018-02-23T10:53:45.529Z,2.30
2018-02-23T10:56:11.983Z,2.30
2018-02-23T10:58:38.292Z,2.30
2018-02-23T11:01:04.606Z,2.40
2018-02-23T11:03:31.024Z,2.30
2018-02-23T11:05:57.983Z,2.40
2018-02-23T11:08:24.978Z,2.40
2018-02-23T11:10:51.239Z,2.40
2018-02-23T11:13:18.238Z,2.50
2018-02-23T11:15:44.591Z,2.50
2018-02-23T11:18:10.820Z,2.50
2018-02-23T11:20:37.164Z,2.50
2018-02-23T11:23:03.396Z,2.50
2018-02-23T11:25:29.632Z,2.50
2018-02-23T11:27:56.743Z,2.60
2018-02-23T11:30:23.049Z,2.60
2018-02-23T11:32:49.241Z,2.60
2018-02-23T11:35:16.223Z,2.60
2018-02-23T11:37:42.539Z,2.60
2018-02-23T11:40:08.764Z,2.70
2018-02-23T11:42:36.110Z,2.80
2018-02-23T11:45:03.088Z,2.80
2018-02-23T11:47:29.332Z,2.70
2018-02-23T11:49:55.595Z,2.70
2018-02-23T11:52:21.834Z,2.60
2018-02-23T11:54:49.053Z,2.80
2018-02-23T11:57:15.427Z,2.80
2018-02-23T11:59:41.727Z,2.80
2018-02-23T12:02:07.967Z,2.90
2018-02-23T12:04:34.269Z,2.80
2018-02-23T12:07:00.496Z,2.80
2018-02-23T12:09:26.786Z,2.80
2018-02-23T12:11:53.844Z,2.80
2018-02-23T12:14:20.173Z,2.80
2018-02-23T12:16:46.379Z,2.80
2018-02-23T12:19:13.404Z,3.00
2018-02-23T12:21:39.787Z,2.90
2018-02-23T12:24:06.165Z,3.00
2018-02-23T12:26:32.391Z,3.00
2018-02-23T12:28:58.664Z,3.00
2018-02-23T12:31:25.656Z,2.80
2018-02-23T12:33:51.889Z,2.80
2018-02-23T12:36:18.102Z,2.90
2018-02-23T12:38:44.482Z,3.00
2018-02-23T12:41:11.406Z,3.10
2018-02-23T12:43:37.607Z,3.10
2018-02-23T12:46:03.793Z,3.10
2018-02-23T12:48:30.746Z,3.30
2018-02-23T12:50:57.744Z,3.30
2018-02-23T12:53:23.927Z,3.30
2018-02-23T12:55:50.938Z,3.20
2018-02-23T12:58:17.142Z,3.20
2018-02-23T13:00:43.345Z,3.20
2018-02-23T13:03:09.602Z,3.10
2018-02-23T13:05:35.939Z,3.10
2018-02-23T13:08:02.208Z,3.10
2018-02-23T13:10:29.198Z,3.20
2018-02-23T13:12:55.620Z,3.20
2018-02-23T13:15:22.010Z,3.30
2018-02-23T13:17:48.359Z,3.30
2018-02-23T13:20:15.330Z,3.30
2018-02-23T13:22:41.792Z,3.30
2018-02-23T13:25:08.019Z,3.30
2018-02-23T13:27:34.304Z,3.40
2018-02-23T13:30:01.289Z,3.40
2018-02-23T13:32:27.554Z,3.40
2018-02-23T13:34:53.846Z,3.40
2018-02-23T13:37:21.047Z,3.30
2018-02-23T13:39:53.400Z,3.20
2018-02-23T13:42:22.909Z,3.20
2018-02-23T13:44:50.051Z,3.40
2018-02-23T13:47:16.407Z,3.30
2018-02-23T13:49:42.739Z,3.40
2018-02-23T13:52:10.321Z,3.40
2018-02-23T13:54:36.608Z,3.40
2018-02-23T13:57:02.861Z,3.40
2018-02-23T13:59:29.105Z,3.30
2018-02-23T14:01:55.631Z,3.20
2018-02-23T14:04:22.789Z,3.00
2018-02-23T14:06:49.752Z,3.00
2018-02-23T14:09:16.009Z,2.90
2018-02-23T14:11:42.304Z,2.90
2018-02-23T14:14:08.682Z,2.90
2018-02-23T14:16:34.923Z,2.90
2018-02-23T14:19:01.193Z,2.90
2018-02-23T14:21:28.130Z,2.90
2018-02-23T14:23:55.523Z,2.90
2018-02-23T14:26:21.804Z,2.90
2018-02-23T14:28:48.091Z,3.00
2018-02-23T14:31:14.341Z,3.20
2018-02-23T14:33:40.580Z,3.40
2018-02-23T14:36:07.044Z,3.60
2018-02-23T14:38:34.025Z,3.70
2018-02-23T14:41:00.214Z,3.70
2018-02-23T14:43:27.188Z,3.40
2018-02-23T14:45:53.476Z,3.30
2018-02-23T14:48:32.143Z,3.40
2018-02-23T14:51:09.588Z,3.30
2018-02-23T14:53:35.902Z,3.30
2018-02-23T14:56:02.112Z,3.30
2018-02-23T14:58:28.388Z,3.40
2018-02-23T15:00:54.632Z,3.40
2018-02-23T15:03:20.893Z,3.40
2018-02-23T15:05:47.195Z,3.40
2018-02-23T15:08:14.231Z,3.40
2018-02-23T15:10:41.296Z,3.30
2018-02-23T15:13:09.100Z,3.30
2018-02-23T15:15:35.353Z,3.20
2018-02-23T15:18:01.676Z,3.10
2018-02-23T15:20:27.872Z,3.00
2018-02-23T15:22:54.175Z,3.10
2018-02-23T15:25:21.250Z,3.10
2018-02-23T15:27:47.529Z,3.00
2018-02-23T15:30:26.076Z,3.00
2018-02-23T15:32:53.099Z,2.90
2018-02-23T15:35:20.039Z,2.80
2018-02-23T15:37:46.311Z,2.80
2018-02-23T15:40:12.672Z,2.70
2018-02-23T15:42:38.983Z,2.70
2018-02-23T15:45:05.230Z,2.70
2018-02-23T15:50:40.350Z,2.70
2018-02-23T15:53:07.628Z,2.60
2018-02-23T15:55:34.043Z,2.60
2018-02-23T15:58:10.481Z,2.60
2018-02-23T16:00:36.889Z,2.50
2018-02-23T16:03:03.237Z,2.50
2018-02-23T16:05:31.477Z,2.40
2018-02-23T16:07:58.238Z,2.40
2018-02-23T16:10:24.774Z,2.30
2018-02-23T16:12:51.838Z,2.30
2018-02-23T16:15:18.354Z,2.30
2018-02-23T16:17:44.673Z,2.20
2018-02-23T16:20:11.115Z,2.20
2018-02-23T16:22:37.430Z,2.10
2018-02-23T16:25:03.804Z,2.10
2018-02-23T16:27:30.802Z,2.00
2018-02-23T16:29:57.294Z,1.90
2018-02-23T16:32:23.599Z,1.80
2018-02-23T16:34:50.265Z,1.70
2018-02-23T16:37:16.845Z,1.70
2018-02-23T16:39:43.443Z,1.60
2018-02-23T16:42:09.674Z,1.60
2018-02-23T16:44:36.792Z,1.50
2018-02-23T16:47:03.046Z,1.50
2018-02-23T16:49:29.328Z,1.50
2018-02-23T16:51:55.776Z,1.50
2018-02-23T16:54:22.052Z,1.40
2018-02-23T16:56:48.993Z,1.40
2018-02-23T16:59:15.343Z,1.40
2018-02-23T17:01:42.379Z,1.30
2018-02-23T17:04:09.366Z,1.30
2018-02-23T17:06:35.714Z,1.20
2018-02-23T17:09:02.022Z,1.20
2018-02-23T17:11:28.365Z,1.20
2018-02-23T17:13:55.591Z,1.20
2018-02-23T17:16:21.807Z,1.10
2018-02-23T17:18:48.882Z,1.10
2018-02-23T17:21:15.146Z,1.00
2018-02-23T17:23:41.546Z,1.00
2018-02-23T17:26:07.789Z,1.00
2018-02-23T17:28:34.114Z,1.00
2018-02-23T17:31:00.341Z,0.90
2018-02-23T17:33:26.578Z,0.90
2018-02-23T17:35:52.795Z,0.90
2018-02-23T17:38:19.165Z,0.80
2018-02-23T17:40:45.395Z,0.80
2018-02-23T17:43:11.595Z,0.80
2018-02-23T17:45:37.794Z,0.70
2018-02-23T17:48:04.042Z,0.80
2018-02-23T17:50:30.296Z,0.70
2018-02-23T17:52:56.567Z,0.70
2018-02-23T17:55:23.515Z,0.70
2018-02-23T17:57:50.462Z,0.60
2018-02-23T18:00:17.431Z,0.60
2018-02-23T18:02:43.670Z,0.60
2018-02-23T18:05:10.113Z,0.60
2018-02-23T18:07:37.294Z,0.60
2018-02-23T18:10:03.551Z,0.60
2018-02-23T18:12:30.511Z,0.60
2018-02-23T18:14:56.759Z,0.60
2018-02-23T18:17:22.950Z,0.50
2018-02-23T18:19:49.999Z,0.50
2018-02-23T18:22:16.982Z,0.50
2018-02-23T18:24:43.338Z,0.50
2018-02-23T18:27:09.542Z,0.40
2018-02-23T18:29:35.990Z,0.40
2018-02-23T18:32:02.215Z,0.40
2018-02-23T18:34:28.446Z,0.40
2018-02-23T18:36:54.932Z,0.40
2018-02-23T18:39:21.915Z,0.30
2018-02-23T18:41:48.192Z,0.30
2018-02-23T18:44:14.409Z,0.30
2018-02-23T18:46:40.677Z,0.30
2018-02-23T18:49:06.971Z,0.30
2018-02-23T18:51:33.175Z,0.20
2018-02-23T18:53:59.407Z,0.20
2018-02-23T18:56:26.425Z,0.20
2018-02-23T18:58:52.710Z,0.20
2018-02-23T19:01:18.990Z,0.10
2018-02-23T19:03:45.216Z,0.10
2018-02-23T19:06:11.514Z,0.10
2018-02-23T19:08:38.524Z,0.10
2018-02-23T19:11:04.785Z,0.10
2018-02-23T19:13:31.030Z,0.10
2018-02-23T19:15:58.021Z,0.00
2018-02-23T19:18:24.275Z,0.00
2018-02-23T19:20:50.498Z,0.00
2018-02-23T19:23:16.818Z,0.00
2018-02-23T19:25:43.040Z,0.00
2018-02-23T19:28:09.307Z,-0.10
2018-02-23T19:30:35.667Z,-0.10
2018-02-23T19:33:01.904Z,-0.10
2018-02-23T19:35:28.146Z,-0.10
2018-02-23T19:37:54.403Z,-0.20
2018-02-23T19:40:20.697Z,-0.20
2018-02-23T19:42:46.903Z,-0.20
2018-02-23T19:45:13.959Z,-0.20
2018-02-23T19:47:40.132Z,-0.20
2018-02-23T19:50:06.326Z,-0.20
2018-02-23T19:52:32.530Z,-0.20
2018-02-23T19:54:59.495Z,-0.30
2018-02-23T19:57:25.698Z,-0.30
2018-02-23T19:59:52.645Z,-0.30
2018-02-23T20:02:19.085Z,-0.30
2018-02-23T20:04:46.080Z,-0.30
2018-02-23T20:07:13.047Z,-0.40
2018-02-23T20:09:39.345Z,-0.40
2018-02-23T20:12:05.655Z,-0.40
2018-02-23T20:14:31.860Z,-0.40
2018-02-23T20:16:58.811Z,-0.40
2018-02-23T20:19:25.837Z,-0.40
2018-02-23T20:21:57.484Z,-0.40
2018-02-23T20:24:37.147Z,-0.50
2018-02-23T20:27:03.410Z,-0.50
2018-02-23T20:29:29.743Z,-0.50
2018-02-23T20:31:55.948Z,-0.50
2018-02-23T20:34:23.394Z,-0.60
2018-02-23T20:36:50.358Z,-0.60
2018-02-23T20:39:17.947Z,-0.60
2018-02-23T20:41:44.170Z,-0.60
2018-02-23T20:44:10.393Z,-0.60
2018-02-23T20:46:37.966Z,-0.60
2018-02-23T20:49:04.232Z,-0.60
2018-02-23T20:51:30.550Z,-0.70
2018-02-23T20:53:58.047Z,-0.70
2018-02-23T20:56:24.259Z,-0.70
2018-02-23T20:58:50.576Z,-0.70
2018-02-23T21:01:17.315Z,-0.70
2018-02-23T21:03:43.560Z,-0.80
2018-02-23T21:06:09.786Z,-0.80
2018-02-23T21:08:36.091Z,-0.80
2018-02-23T21:11:02.355Z,-0.80
2018-02-23T21:13:28.563Z,-0.80
2018-02-23T21:15:54.789Z,-0.80
2018-02-23T21:18:21.084Z,-0.90
2018-02-23T21:20:48.031Z,-0.90
2018-02-23T21:23:14.644Z,-0.90
2018-02-23T21:25:40.865Z,-0.90
2018-02-23T21:28:07.086Z,-0.90
2018-02-23T21:30:34.036Z,-1.00
2018-02-23T21:33:00.272Z,-1.00
2018-02-23T21:35:26.471Z,-1.00
2018-02-23T21:37:52.700Z,-1.00
2018-02-23T21:40:19.139Z,-1.00
2018-02-23T21:42:45.369Z,-1.00
2018-02-23T21:45:11.606Z,-1.00
2018-02-23T21:47:37.858Z,-1.10
2018-02-23T21:50:04.124Z,-1.10
2018-02-23T21:52:30.407Z,-1.10
2018-02-23T21:54:56.735Z,-1.10
2018-02-23T21:57:22.965Z,-1.10
2018-02-23T21:59:49.237Z,-1.10
2018-02-23T22:02:15.667Z,-1.20
2018-02-23T22:04:42.039Z,-1.20
2018-02-23T22:07:08.266Z,-1.20
2018-02-23T22:09:34.507Z,-1.20
2018-02-23T22:12:00.721Z,-1.20
2018-02-23T22:14:26.945Z,-1.20
2018-02-23T22:16:53.195Z,-1.30
2018-02-23T22:19:19.442Z,-1.30
2018-02-23T22:21:45.663Z,-1.30
2018-02-23T22:24:11.884Z,-1.30
2018-02-23T22:26:38.193Z,-1.30
2018-02-23T22:29:08.556Z,-1.30
2018-02-23T22:31:36.627Z,-1.30
2018-02-23T22:34:02.975Z,-1.30
2018-02-23T22:36:29.983Z,-1.40
2018-02-23T22:38:56.969Z,-1.40
2018-02-23T22:41:23.220Z,-1.40
2018-02-23T22:43:49.434Z,-1.40
2018-02-23T22:46:16.422Z,-1.40
2018-02-23T22:48:42.684Z,-1.50
2018-02-23T22:51:08.910Z,-1.40
2018-02-23T22:53:35.102Z,-1.50
2018-02-23T22:56:01.373Z,-1.40
2018-02-23T22:58:27.618Z,-1.50
2018-02-23T23:00:54.584Z,-1.50
2018-02-23T23:03:20.810Z,-1.50
2018-02-23T23:05:47.788Z,-1.50
2018-02-23T23:08:14.013Z,-1.50
2018-02-23T23:10:40.282Z,-1.50
2018-02-23T23:13:06.505Z,-1.50
2018-02-23T23:15:32.735Z,-1.50
2018-02-23T23:17:58.931Z,-1.50
2018-02-23T23:20:25.173Z,-1.50
2018-02-23T23:22:51.448Z,-1.60
2018-02-23T23:25:18.396Z,-1.60
2018-02-23T23:27:45.338Z,-1.60
2018-02-23T23:30:12.314Z,-1.60
2018-02-23T23:32:38.514Z,-1.60
2018-02-23T23:35:05.513Z,-1.60
2018-02-23T23:37:31.762Z,-1.60
2018-02-23T23:39:57.990Z,-1.60
2018-02-23T23:42:24.211Z,-1.70
2018-02-23T23:44:51.170Z,-1.70
2018-02-23T23:47:17.415Z,-1.70
2018-02-23T23:49:44.404Z,-1.70
2018-02-23T23:52:10.599Z,-1.80
2018-02-23T23:54:36.991Z,-1.80
2018-02-23T23:57:03.236Z,-1.70
2018-02-23T23:59:29.456Z,-1.80
